MMMD/MID METAR and TAF weather

Enter ICAO airport designator
Station Type Date Time Source
MMMD METAR 2020/03/28 08:47 UTC NOAA

MMMD 280847Z 10010KT 7SM SKC 23/19 A2987 RMK SLP133 52003 903


Station Type Date Time Source
MMMD Decoded METAR 2020/03/28 08:47 UTC NOAA

Merida / lic Manuel Crecencio, Mexico (MMMD) 20-56N 089-39W 11M
Mar 28, 2020 - 04:47 AM EDT / 2020.03.28 0847 UTC
Wind: from the E (100 degrees) at 12 MPH (10 KT):0
Visibility: 7 mile(s):0
Sky conditions: clear
Temperature: 73 F (23 C)
Dew Point: 66 F (19 C)
Relative Humidity: 78%
Pressure (altimeter): 29.87 in. Hg (1011 hPa)
Pressure tendency: 0.01 inches (0.3 hPa) higher than three hours ago
ob: MMMD 280847Z 10010KT 7SM SKC 23/19 A2987 RMK SLP133 52003 903
cycle: 9

Station Type Date Time Source
MMMD TAF 2020/03/28 06:24 UTC NOAA

TAF MMMD 280522Z 2806/2912 13008KT 6SM HZ SKC TX38/2820Z TN23/2812Z
TEMPO 2812/2815 BKN010
FM281800 13010KT P6SM SKC
TEMPO 2819/2823 13010G20KT
FM290300 13005KT 6SM HZ SKC

Example: see airport list